createdAt,value
2018-09-15T00:00:03.799Z,79.50
2018-09-15T00:02:32.082Z,79.00
2018-09-15T00:05:00.429Z,78.90
2018-09-15T00:07:28.713Z,78.50
2018-09-15T00:09:57.033Z,78.40
2018-09-15T00:12:25.334Z,78.30
2018-09-15T00:14:53.642Z,78.10
2018-09-15T00:17:21.973Z,77.80
2018-09-15T00:19:50.337Z,77.80
2018-09-15T00:22:18.653Z,77.70
2018-09-15T00:24:46.977Z,77.60
2018-09-15T00:27:15.273Z,77.60
2018-09-15T00:29:43.578Z,77.60
2018-09-15T00:32:11.866Z,77.60
2018-09-15T00:34:40.230Z,77.60
2018-09-15T00:37:08.542Z,77.30
2018-09-15T00:39:36.898Z,77.40
2018-09-15T00:42:05.189Z,77.30
2018-09-15T00:44:33.500Z,77.20
2018-09-15T00:47:01.789Z,77.20
2018-09-15T00:49:30.102Z,77.10
2018-09-15T00:51:58.396Z,77.30
2018-09-15T00:54:26.736Z,77.30
2018-09-15T00:56:55.033Z,77.30
2018-09-15T00:59:23.336Z,77.30
2018-09-15T01:01:51.616Z,77.50
2018-09-15T01:04:19.933Z,77.40
2018-09-15T01:06:48.213Z,77.60
2018-09-15T01:09:16.521Z,77.70
2018-09-15T01:11:44.810Z,77.80
2018-09-15T01:14:13.230Z,77.60
2018-09-15T01:16:41.481Z,77.90
2018-09-15T01:19:09.760Z,78.10
2018-09-15T01:21:38.082Z,78.10
2018-09-15T01:24:06.599Z,78.40
2018-09-15T01:26:34.918Z,78.70
2018-09-15T01:29:03.221Z,78.70
2018-09-15T01:31:31.535Z,79.00
2018-09-15T01:33:59.824Z,79.20
2018-09-15T01:36:28.157Z,79.40
2018-09-15T01:38:56.498Z,79.50
2018-09-15T01:41:24.787Z,79.50
2018-09-15T01:43:53.245Z,79.70
2018-09-15T01:46:21.589Z,79.80
2018-09-15T01:48:49.901Z,79.70
2018-09-15T01:51:18.233Z,79.70
2018-09-15T01:53:46.544Z,79.70
2018-09-15T01:56:14.859Z,79.80
2018-09-15T01:58:43.170Z,79.90
2018-09-15T02:01:11.478Z,80.10
2018-09-15T02:03:39.785Z,80.10
2018-09-15T02:06:08.113Z,80.40
2018-09-15T02:08:36.433Z,80.50
2018-09-15T02:11:04.773Z,80.60
2018-09-15T02:13:33.089Z,80.70
2018-09-15T02:16:01.404Z,80.70
2018-09-15T02:18:29.736Z,80.80
2018-09-15T02:20:58.062Z,81.00
2018-09-15T02:23:26.378Z,81.00
2018-09-15T02:25:55.530Z,81.10
2018-09-15T02:28:23.832Z,81.00
2018-09-15T02:30:52.157Z,81.00
2018-09-15T02:33:20.476Z,80.90
2018-09-15T02:35:48.785Z,81.00
2018-09-15T02:38:17.089Z,81.00
2018-09-15T02:40:45.406Z,80.90
2018-09-15T02:43:13.697Z,80.90
2018-09-15T02:45:42.032Z,80.70
2018-09-15T02:48:10.421Z,80.70
2018-09-15T02:50:38.739Z,80.70
2018-09-15T02:53:07.052Z,80.70
2018-09-15T02:55:35.389Z,80.50
2018-09-15T02:58:03.687Z,80.60
2018-09-15T03:00:32.013Z,81.40
2018-09-15T03:03:00.358Z,80.70
2018-09-15T03:05:28.677Z,80.60
2018-09-15T03:07:57.005Z,80.50
2018-09-15T03:10:25.321Z,80.40
2018-09-15T03:12:53.639Z,80.40
2018-09-15T03:15:21.941Z,80.50
2018-09-15T03:17:50.258Z,80.50
2018-09-15T03:20:18.570Z,80.50
2018-09-15T03:22:46.921Z,80.50
2018-09-15T03:25:15.258Z,80.40
2018-09-15T03:27:43.603Z,80.40
2018-09-15T03:30:11.904Z,80.50
2018-09-15T03:32:40.236Z,80.50
2018-09-15T03:35:08.585Z,80.40
2018-09-15T03:37:36.884Z,80.40
2018-09-15T03:40:05.328Z,80.40
2018-09-15T03:42:33.667Z,80.60
2018-09-15T03:45:01.974Z,80.50
2018-09-15T03:47:30.282Z,80.60
2018-09-15T03:49:58.637Z,80.80
2018-09-15T03:52:26.945Z,80.90
2018-09-15T03:54:55.249Z,81.00
2018-09-15T03:57:23.582Z,81.30
2018-09-15T03:59:52.025Z,81.20
2018-09-15T04:02:20.279Z,81.40
2018-09-15T04:04:48.590Z,81.60
2018-09-15T04:07:16.889Z,81.80
2018-09-15T04:09:45.212Z,82.00
2018-09-15T04:12:13.550Z,82.10
2018-09-15T04:14:41.850Z,82.40
2018-09-15T04:17:10.193Z,82.70
2018-09-15T04:19:38.525Z,82.80
2018-09-15T04:22:06.931Z,82.90
2018-09-15T04:24:35.274Z,82.90
2018-09-15T04:27:03.609Z,83.00
2018-09-15T04:29:31.913Z,83.20
2018-09-15T04:32:00.240Z,83.50
2018-09-15T04:34:28.574Z,83.50
2018-09-15T04:36:56.910Z,83.70
2018-09-15T04:39:25.241Z,83.90
2018-09-15T04:41:53.594Z,84.00
2018-09-15T04:44:21.905Z,84.30
2018-09-15T04:46:50.233Z,84.40
2018-09-15T04:49:18.581Z,84.50
2018-09-15T04:51:46.909Z,84.60
2018-09-15T04:54:15.240Z,84.90
2018-09-15T04:56:43.534Z,84.90
2018-09-15T04:59:11.861Z,85.00
2018-09-15T05:01:40.183Z,85.20
2018-09-15T05:04:08.513Z,85.10
2018-09-15T05:06:36.926Z,85.10
2018-09-15T05:09:08.037Z,85.00
2018-09-15T05:11:36.368Z,85.00
2018-09-15T05:14:04.673Z,85.20
2018-09-15T05:16:33.002Z,85.10
2018-09-15T05:19:01.378Z,85.10
2018-09-15T05:21:29.670Z,85.20
2018-09-15T05:23:57.993Z,85.00
2018-09-15T05:26:26.285Z,85.10
2018-09-15T05:28:54.696Z,85.10
2018-09-15T05:31:23.024Z,85.00
2018-09-15T05:33:51.453Z,85.00
2018-09-15T05:36:19.891Z,84.90
2018-09-15T05:38:48.198Z,85.00
2018-09-15T05:41:16.562Z,85.10
2018-09-15T05:43:44.862Z,85.10
2018-09-15T05:46:13.170Z,85.20
2018-09-15T05:48:41.492Z,85.20
2018-09-15T05:51:09.801Z,85.20
2018-09-15T05:53:38.129Z,85.30
2018-09-15T05:56:06.568Z,85.40
2018-09-15T05:58:34.857Z,85.70
2018-09-15T06:01:05.573Z,85.70
2018-09-15T06:03:33.914Z,85.60
2018-09-15T06:06:02.233Z,85.60
2018-09-15T06:08:30.549Z,85.60
2018-09-15T06:10:58.900Z,85.70
2018-09-15T06:13:27.254Z,85.50
2018-09-15T06:15:55.565Z,85.50
2018-09-15T06:18:23.893Z,85.50
2018-09-15T06:20:52.210Z,85.40
2018-09-15T06:23:20.518Z,85.50
2018-09-15T06:25:48.846Z,85.60
2018-09-15T06:28:17.141Z,85.70
2018-09-15T06:30:45.461Z,85.90
2018-09-15T06:33:13.769Z,86.10
2018-09-15T06:35:42.141Z,86.20
2018-09-15T06:38:10.441Z,86.10
2018-09-15T06:40:38.785Z,86.00
2018-09-15T06:43:07.099Z,85.90
2018-09-15T06:45:35.501Z,85.70
2018-09-15T06:48:03.907Z,85.50
2018-09-15T06:50:32.241Z,85.40
2018-09-15T06:53:00.589Z,85.30
2018-09-15T06:55:29.012Z,85.40
2018-09-15T06:57:57.416Z,85.30
2018-09-15T07:00:25.817Z,85.50
2018-09-15T07:02:54.130Z,85.20
2018-09-15T07:05:22.474Z,85.20
2018-09-15T07:07:50.797Z,85.00
2018-09-15T07:10:19.094Z,84.80
2018-09-15T07:12:47.425Z,84.70
2018-09-15T07:15:15.726Z,84.70
2018-09-15T07:17:44.093Z,84.80
2018-09-15T07:20:12.426Z,84.80
2018-09-15T07:22:40.738Z,84.50
2018-09-15T07:25:09.137Z,84.40
2018-09-15T07:27:37.474Z,83.90
2018-09-15T07:30:05.877Z,83.20
2018-09-15T07:32:34.232Z,82.90
2018-09-15T07:35:02.569Z,82.40
2018-09-15T07:37:30.966Z,81.90
2018-09-15T07:39:59.222Z,81.20
2018-09-15T07:42:27.547Z,80.90
2018-09-15T07:44:55.894Z,80.60
2018-09-15T07:47:24.329Z,80.40
2018-09-15T07:49:52.692Z,80.20
2018-09-15T07:52:21.045Z,80.20
2018-09-15T07:54:49.360Z,79.80
2018-09-15T07:57:17.752Z,80.10
2018-09-15T07:59:46.060Z,80.10
2018-09-15T08:02:20.409Z,80.10
2018-09-15T08:04:49.233Z,80.00
2018-09-15T08:07:17.535Z,80.00
2018-09-15T08:09:46.626Z,80.00
2018-09-15T08:12:15.800Z,80.10
2018-09-15T08:14:44.166Z,80.00
2018-09-15T08:17:12.469Z,79.90
2018-09-15T08:19:40.840Z,80.00
2018-09-15T08:22:09.145Z,79.90
2018-09-15T08:24:37.476Z,79.90
2018-09-15T08:27:05.926Z,79.60
2018-09-15T08:29:34.231Z,79.60
2018-09-15T08:32:02.690Z,79.80
2018-09-15T08:34:30.970Z,79.70
2018-09-15T08:36:59.382Z,78.70
2018-09-15T08:39:27.693Z,78.40
2018-09-15T08:41:56.023Z,76.70
2018-09-15T08:44:24.333Z,75.20
2018-09-15T08:46:52.689Z,73.60
2018-09-15T08:49:21.029Z,72.90
2018-09-15T08:51:49.369Z,71.30
2018-09-15T08:54:17.745Z,69.90
2018-09-15T08:56:46.134Z,68.20
2018-09-15T08:59:14.443Z,67.30
2018-09-15T09:01:42.773Z,67.40
2018-09-15T09:04:11.065Z,67.30
2018-09-15T09:06:39.416Z,66.80
2018-09-15T09:09:09.177Z,66.30
2018-09-15T09:11:37.508Z,65.20
2018-09-15T09:14:05.824Z,64.40
2018-09-15T09:16:34.172Z,63.80
2018-09-15T09:19:02.573Z,63.70
2018-09-15T09:21:30.878Z,63.90
2018-09-15T09:23:59.250Z,64.30
2018-09-15T09:26:27.638Z,64.70
2018-09-15T09:28:55.946Z,65.00
2018-09-15T09:31:24.258Z,65.50
2018-09-15T09:33:52.605Z,65.70
2018-09-15T09:36:20.901Z,65.70
2018-09-15T09:38:49.221Z,65.60
2018-09-15T09:41:17.572Z,65.50
2018-09-15T09:43:45.877Z,64.60
2018-09-15T09:46:14.199Z,63.40
2018-09-15T09:48:42.494Z,63.30
2018-09-15T09:51:10.802Z,63.70
2018-09-15T09:53:39.105Z,63.50
2018-09-15T09:56:07.453Z,63.50
2018-09-15T09:58:35.764Z,63.80
2018-09-15T10:01:09.525Z,63.80
2018-09-15T10:03:37.833Z,63.70
2018-09-15T10:06:06.178Z,64.00
2018-09-15T10:08:34.539Z,63.80
2018-09-15T10:11:02.871Z,63.50
2018-09-15T10:13:31.177Z,63.00
2018-09-15T10:15:59.575Z,62.50
2018-09-15T10:18:27.849Z,62.40
2018-09-15T10:20:56.178Z,62.90
2018-09-15T10:23:24.504Z,62.70
2018-09-15T10:25:52.839Z,62.50
2018-09-15T10:28:21.134Z,62.80
2018-09-15T10:30:49.497Z,62.90
2018-09-15T10:33:17.791Z,61.40
2018-09-15T10:35:46.085Z,60.80
2018-09-15T10:38:14.389Z,61.20
2018-09-15T10:40:42.679Z,61.80
2018-09-15T10:43:11.045Z,62.30
2018-09-15T10:45:39.349Z,62.40
2018-09-15T10:48:07.705Z,62.20
2018-09-15T10:50:36.042Z,62.50
2018-09-15T10:53:04.393Z,62.80
2018-09-15T10:55:32.758Z,63.10
2018-09-15T10:58:01.072Z,63.40
2018-09-15T11:00:29.474Z,63.70
2018-09-15T11:02:57.981Z,63.90
2018-09-15T11:05:26.326Z,63.20
2018-09-15T11:07:54.646Z,63.50
2018-09-15T11:10:22.956Z,64.20
2018-09-15T11:12:52.173Z,64.40
2018-09-15T11:15:20.569Z,62.90
2018-09-15T11:17:48.894Z,60.30
2018-09-15T11:20:17.300Z,58.60
2018-09-15T11:22:45.635Z,57.40
2018-09-15T11:25:13.960Z,56.90
2018-09-15T11:27:42.262Z,56.10
2018-09-15T11:30:10.552Z,55.20
2018-09-15T11:32:38.877Z,55.50
2018-09-15T11:35:07.214Z,55.70
2018-09-15T11:37:35.555Z,57.00
2018-09-15T11:40:03.913Z,58.30
2018-09-15T11:42:32.242Z,60.70
2018-09-15T11:45:00.571Z,62.40
2018-09-15T11:47:28.909Z,64.20
2018-09-15T11:49:57.217Z,65.90
2018-09-15T11:52:25.585Z,67.20
2018-09-15T11:54:53.909Z,68.40
2018-09-15T11:57:22.238Z,69.30
2018-09-15T11:59:50.540Z,70.70
2018-09-15T12:02:22.941Z,71.10
2018-09-15T12:04:51.255Z,71.60
2018-09-15T12:07:19.658Z,71.90
2018-09-15T12:09:48.013Z,73.60
2018-09-15T12:12:16.313Z,73.40
2018-09-15T12:14:44.632Z,73.10
2018-09-15T12:17:12.968Z,72.90
2018-09-15T12:19:41.301Z,72.40
2018-09-15T12:22:09.737Z,71.90
2018-09-15T12:24:38.073Z,71.80
2018-09-15T12:27:06.534Z,72.30
2018-09-15T12:29:34.897Z,72.60
2018-09-15T12:32:03.241Z,73.00
2018-09-15T12:34:31.573Z,74.00
2018-09-15T12:36:59.898Z,73.80
2018-09-15T12:39:28.811Z,73.20
2018-09-15T12:41:57.117Z,73.00
2018-09-15T12:44:25.610Z,73.30
2018-09-15T12:46:53.953Z,73.20
2018-09-15T12:49:22.264Z,73.40
2018-09-15T12:51:50.741Z,73.50
2018-09-15T12:54:19.361Z,73.50
2018-09-15T12:56:47.685Z,73.30
2018-09-15T12:59:16.788Z,73.40
2018-09-15T13:01:45.144Z,73.30
2018-09-15T13:04:13.471Z,73.20
2018-09-15T13:06:42.018Z,72.90
2018-09-15T13:09:12.249Z,73.20
2018-09-15T13:11:40.777Z,73.70
2018-09-15T13:14:10.292Z,74.00
2018-09-15T13:16:38.892Z,74.00
2018-09-15T13:19:07.473Z,74.20
2018-09-15T13:21:35.906Z,73.90
2018-09-15T13:24:04.308Z,73.90
2018-09-15T13:26:32.761Z,74.20
2018-09-15T13:29:01.099Z,74.10
2018-09-15T13:31:29.755Z,75.00
2018-09-15T13:33:58.332Z,74.30
2018-09-15T13:36:26.654Z,74.20
2018-09-15T13:38:54.969Z,73.80
2018-09-15T13:41:23.296Z,74.10
2018-09-15T13:43:51.637Z,74.00
2018-09-15T13:46:19.986Z,74.30
2018-09-15T13:48:48.602Z,73.80
2018-09-15T13:51:16.889Z,73.50
2018-09-15T13:53:45.246Z,74.40
2018-09-15T13:56:13.561Z,73.80
2018-09-15T13:58:48.576Z,74.00
2018-09-15T14:01:16.949Z,74.10
2018-09-15T14:03:49.913Z,74.00
2018-09-15T14:06:18.281Z,74.10
2018-09-15T14:08:46.617Z,73.60
2018-09-15T14:11:14.978Z,72.90
2018-09-15T14:13:43.273Z,72.00
2018-09-15T14:16:11.641Z,71.70
2018-09-15T14:18:39.913Z,71.00
2018-09-15T14:21:08.280Z,70.70
2018-09-15T14:23:36.620Z,70.70
2018-09-15T14:26:04.941Z,71.00
2018-09-15T14:28:33.234Z,71.10
2018-09-15T14:31:02.566Z,70.40
2018-09-15T14:33:30.896Z,69.90
2018-09-15T14:35:59.257Z,70.10
2018-09-15T14:38:27.557Z,70.40
2018-09-15T14:40:55.897Z,70.20
2018-09-15T14:43:24.213Z,70.00
2018-09-15T14:45:52.513Z,69.90
2018-09-15T14:48:24.292Z,69.80
2018-09-15T14:50:52.590Z,69.30
2018-09-15T14:53:20.921Z,69.60
2018-09-15T14:55:49.253Z,69.40
2018-09-15T14:58:17.602Z,69.40
2018-09-15T15:00:45.947Z,69.30
2018-09-15T15:03:14.773Z,69.20
2018-09-15T15:05:43.085Z,69.10
2018-09-15T15:08:11.438Z,69.30
2018-09-15T15:10:39.765Z,68.90
2018-09-15T15:13:08.113Z,68.80
2018-09-15T15:15:36.436Z,68.90
2018-09-15T15:18:04.769Z,68.70
2018-09-15T15:20:33.102Z,68.30
2018-09-15T15:23:01.518Z,68.30
2018-09-15T15:25:29.819Z,68.60
2018-09-15T15:27:58.161Z,68.80
2018-09-15T15:30:26.490Z,68.90
2018-09-15T15:32:54.841Z,69.10
2018-09-15T15:35:23.200Z,69.00
2018-09-15T15:37:51.502Z,69.00
2018-09-15T15:40:19.865Z,69.20
2018-09-15T15:42:48.171Z,68.90
2018-09-15T15:45:16.550Z,68.20
2018-09-15T15:47:44.993Z,67.80
2018-09-15T15:50:13.366Z,67.30
2018-09-15T15:52:41.702Z,66.60
2018-09-15T15:55:10.070Z,66.30
2018-09-15T15:57:38.390Z,66.10
2018-09-15T16:00:06.930Z,66.00
2018-09-15T16:02:35.497Z,66.10
2018-09-15T16:05:03.818Z,66.10
2018-09-15T16:07:32.204Z,66.10
2018-09-15T16:10:00.502Z,65.90
2018-09-15T16:12:28.846Z,65.70
2018-09-15T16:14:57.161Z,65.40
2018-09-15T16:17:25.477Z,64.80
2018-09-15T16:19:53.845Z,63.90
2018-09-15T16:22:22.293Z,63.60
2018-09-15T16:24:50.685Z,63.50
2018-09-15T16:27:19.127Z,63.40
2018-09-15T16:29:47.421Z,63.20
2018-09-15T16:32:15.795Z,62.90
2018-09-15T16:34:44.091Z,63.10
2018-09-15T16:37:12.408Z,63.00
2018-09-15T16:39:40.790Z,63.30
2018-09-15T16:42:09.166Z,63.50
2018-09-15T16:44:37.495Z,64.00
2018-09-15T16:47:05.905Z,63.70
2018-09-15T16:49:34.289Z,64.00
2018-09-15T16:52:02.596Z,64.30
2018-09-15T16:54:30.893Z,64.70
2018-09-15T16:56:59.281Z,65.10
2018-09-15T16:59:27.585Z,65.70
2018-09-15T17:01:55.944Z,65.90
2018-09-15T17:04:24.281Z,66.00
2018-09-15T17:06:52.658Z,66.10
2018-09-15T17:09:21.037Z,66.40
2018-09-15T17:11:49.453Z,66.80
2018-09-15T17:14:17.761Z,67.30
2018-09-15T17:16:46.258Z,67.20
2018-09-15T17:19:14.448Z,67.80
2018-09-15T17:21:42.768Z,68.10
2018-09-15T17:24:11.106Z,68.30
2018-09-15T17:26:39.414Z,68.60
2018-09-15T17:29:11.709Z,69.00
2018-09-15T17:31:40.045Z,69.30
2018-09-15T17:34:08.357Z,69.50
2018-09-15T17:36:36.701Z,70.00
2018-09-15T17:39:08.217Z,70.20
2018-09-15T17:41:36.637Z,70.50
2018-09-15T17:44:04.974Z,70.80
2018-09-15T17:46:33.316Z,71.10
2018-09-15T17:49:01.613Z,71.50
2018-09-15T17:51:29.945Z,71.80
2018-09-15T17:53:58.482Z,72.20
2018-09-15T17:56:26.852Z,73.10
2018-09-15T17:58:55.210Z,72.50
2018-09-15T18:01:23.521Z,72.90
2018-09-15T18:03:51.840Z,73.10
2018-09-15T18:06:23.734Z,73.40
2018-09-15T18:08:52.821Z,73.70
2018-09-15T18:11:21.477Z,73.80
2018-09-15T18:13:49.827Z,74.00
2018-09-15T18:16:18.198Z,74.00
2018-09-15T18:18:46.532Z,74.00
2018-09-15T18:21:17.013Z,74.00
2018-09-15T18:23:45.387Z,74.10
2018-09-15T18:26:13.697Z,74.20
2018-09-15T18:28:42.048Z,74.30
2018-09-15T18:31:10.348Z,74.30
2018-09-15T18:33:38.784Z,75.00
2018-09-15T18:36:07.182Z,74.20
2018-09-15T18:38:35.512Z,74.30
2018-09-15T18:41:04.081Z,74.60
2018-09-15T18:43:32.468Z,74.60
2018-09-15T18:46:00.867Z,74.60
2018-09-15T18:48:29.349Z,74.90
2018-09-15T18:50:57.708Z,74.90
2018-09-15T18:53:26.079Z,75.30
2018-09-15T18:55:54.426Z,75.50
2018-09-15T18:58:22.790Z,75.80
2018-09-15T19:00:51.314Z,76.00
2018-09-15T19:03:19.664Z,76.30
2018-09-15T19:05:48.033Z,76.60
2018-09-15T19:08:16.530Z,76.90
2018-09-15T19:10:44.839Z,77.20
2018-09-15T19:13:13.582Z,77.30
2018-09-15T19:15:41.904Z,77.90
2018-09-15T19:18:10.201Z,77.90
2018-09-15T19:20:38.640Z,78.20
2018-09-15T19:23:07.010Z,78.50
2018-09-15T19:25:35.333Z,78.60
2018-09-15T19:28:03.741Z,79.10
2018-09-15T19:30:32.201Z,79.40
2018-09-15T19:33:00.545Z,79.80
2018-09-15T19:35:28.896Z,80.80
2018-09-15T19:37:57.268Z,80.30
2018-09-15T19:40:25.642Z,80.90
2018-09-15T19:42:54.018Z,80.60
2018-09-15T19:45:22.356Z,81.00
2018-09-15T19:47:50.703Z,81.30
2018-09-15T19:50:19.207Z,81.60
2018-09-15T19:52:47.534Z,81.70
2018-09-15T19:55:15.905Z,82.00
2018-09-15T19:57:44.236Z,82.40
2018-09-15T20:00:12.567Z,82.50
2018-09-15T20:02:40.917Z,82.70
2018-09-15T20:05:09.334Z,83.20
2018-09-15T20:07:37.699Z,83.50
2018-09-15T20:10:06.050Z,84.30
2018-09-15T20:12:34.448Z,83.90
2018-09-15T20:15:02.814Z,84.20
2018-09-15T20:17:30.165Z,84.40
2018-09-15T20:19:57.441Z,84.60
2018-09-15T20:22:25.774Z,85.00
2018-09-15T20:24:54.417Z,85.20
2018-09-15T20:27:22.724Z,85.50
2018-09-15T20:29:51.408Z,85.70
2018-09-15T20:32:19.756Z,85.80
2018-09-15T20:34:48.105Z,86.00
2018-09-15T20:37:16.506Z,86.20
2018-09-15T20:39:44.835Z,86.30
2018-09-15T20:42:13.141Z,86.40
2018-09-15T20:44:41.488Z,86.70
2018-09-15T20:47:09.784Z,86.90
2018-09-15T20:49:38.105Z,87.10
2018-09-15T20:52:06.720Z,87.30
2018-09-15T20:54:35.046Z,87.40
2018-09-15T20:57:03.373Z,87.60
2018-09-15T20:59:31.693Z,87.70
2018-09-15T21:02:00.069Z,87.90
2018-09-15T21:04:28.368Z,88.10
2018-09-15T21:06:56.689Z,88.10
2018-09-15T21:09:25.012Z,88.40
2018-09-15T21:11:53.381Z,88.50
2018-09-15T21:14:21.684Z,88.70
2018-09-15T21:16:50.105Z,88.70
2018-09-15T21:19:18.408Z,88.90
2018-09-15T21:21:56.411Z,89.10
2018-09-15T21:24:24.718Z,89.40
2018-09-15T21:26:53.050Z,89.50
2018-09-15T21:29:21.349Z,89.60
2018-09-15T21:31:49.679Z,89.80
2018-09-15T21:34:17.978Z,90.20
2018-09-15T21:36:46.417Z,90.00
2018-09-15T21:39:14.757Z,90.00
2018-09-15T21:41:43.101Z,90.20
2018-09-15T21:44:11.414Z,90.20
2018-09-15T21:46:39.981Z,90.20
2018-09-15T21:49:08.301Z,90.20
2018-09-15T21:51:36.621Z,90.40
2018-09-15T21:54:05.052Z,90.50
2018-09-15T21:56:33.405Z,90.50
2018-09-15T21:59:01.725Z,90.60
2018-09-15T22:01:30.058Z,90.70
2018-09-15T22:04:03.735Z,90.80
2018-09-15T22:06:32.112Z,90.80
2018-09-15T22:09:00.490Z,90.90
2018-09-15T22:11:28.797Z,90.90
2018-09-15T22:14:04.819Z,90.90
2018-09-15T22:16:33.429Z,91.00
2018-09-15T22:19:01.898Z,91.10
2018-09-15T22:21:30.209Z,91.10
2018-09-15T22:23:58.547Z,91.10
2018-09-15T22:26:26.885Z,91.20
2018-09-15T22:28:55.180Z,91.20
2018-09-15T22:31:23.482Z,91.30
2018-09-15T22:34:02.099Z,91.30
2018-09-15T22:36:30.405Z,91.40
2018-09-15T22:38:58.725Z,91.70
2018-09-15T22:41:28.028Z,91.50
2018-09-15T22:43:56.349Z,91.60
2018-09-15T22:46:24.690Z,91.60
2018-09-15T22:48:53.286Z,91.70
2018-09-15T22:51:21.625Z,91.80
2018-09-15T22:53:49.929Z,91.80
2018-09-15T22:56:18.225Z,91.80
2018-09-15T22:58:46.572Z,91.90
2018-09-15T23:01:14.873Z,91.90
2018-09-15T23:03:43.161Z,91.90
2018-09-15T23:06:11.481Z,91.90
2018-09-15T23:08:39.791Z,91.90
2018-09-15T23:11:08.462Z,91.90
2018-09-15T23:13:36.807Z,92.00
2018-09-15T23:16:05.165Z,92.00
2018-09-15T23:18:33.539Z,92.10
2018-09-15T23:21:01.857Z,92.10
2018-09-15T23:23:30.181Z,92.10
2018-09-15T23:25:58.506Z,92.10
2018-09-15T23:28:26.850Z,92.10
2018-09-15T23:30:55.185Z,92.10
2018-09-15T23:33:23.580Z,92.10
2018-09-15T23:35:51.866Z,92.20
2018-09-15T23:38:20.177Z,92.20
2018-09-15T23:40:48.501Z,92.30
2018-09-15T23:43:16.862Z,92.30
2018-09-15T23:45:45.197Z,92.40
2018-09-15T23:48:13.489Z,92.40
2018-09-15T23:50:41.794Z,92.50
2018-09-15T23:53:10.148Z,92.50
2018-09-15T23:55:38.446Z,92.60
2018-09-15T23:58:07.284Z,92.60
